Aérodrome :
LOGIN :

S'inscrire | Disclaimer

   EN    FR    IT 

 










Légende :    VFR   VFR Marginal   IFR   IFR Intensif   IFR Très Intensif
Visi : 
Plafond : 
>= 8 km
>= 3000ft
5 à 8 km
1000 à 3000 ft
1500m à 5 km
500 à 1000 ft
800 à 1500m
200 à 500 ft
< 800m
< 200 ft
Symboles :   Orages  Brouillard  Fortes neiges  Fortes précipitations  Vent > 20 kt
SIGMETs :   Divers  Orages  Givrage  Turbulence  Onde Orograph.  Cendres Volcan.






- Altitude de l'aérodrome : 640 ft
- Code IATA : AOC


EDAC - Altenburg-Nobitz

DERNIER METAR :
  • 210520Z AUTO 05003KT 020V080 0800 R22/1300U // SCT002/// OVC004/// 05/04 Q1011

METARs EXPIRÉS :
  • 210450Z AUTO 03003KT 0700 R22/0900N // VV002 05/04 Q1011
  • 210420Z AUTO 02003KT 0800 R22/1100N // SCT002/// OVC005/// 05/04 Q1012
  • 210350Z AUTO 03003KT 1100 R22/1700U // SCT002/// OVC005/// 05/04 Q1012
  • 210320Z AUTO 01003KT 1600 // BKN002/// OVC005/// 05/04 Q1012
  • 210250Z AUTO 02003KT 350V060 1400 R22/P2000N // BKN002/// OVC005/// 05/04 Q1012

Prévision TAF périmée.



MET'MAP, la Météo Aéronautique d'un coup d'oeil ! - Copyright ORBIFLY Décembre 2007 - Disclaimer

ORBIFLY MET'MAP TEAM :

Programmation & Développement : Alexandra Zaïnal
Conception & Développement : Baudouin d'Aumeries
Co-Programmation & Développement : Marc-Olivier Méhu
Soutien technique & logistique : Manuel Goepfert

Contact : metmap@orbifly.com




SOURCES & CREDITS :

   NOAA